sensor_id;sensor_type;location;lat;lon;timestamp;P1;durP1;ratioP1;P2;durP2;ratioP2
46006;SDS011;31738;50.188;8.524;2022-09-02T00:01:45;1.73;;;1.20;;
46006;SDS011;31738;50.188;8.524;2022-09-02T00:04:22;2.05;;;1.30;;
46006;SDS011;31738;50.188;8.524;2022-09-02T00:06:49;2.33;;;1.42;;
46006;SDS011;31738;50.188;8.524;2022-09-02T00:09:17;3.00;;;1.50;;
46006;SDS011;31738;50.188;8.524;2022-09-02T00:11:47;3.25;;;1.40;;
46006;SDS011;31738;50.188;8.524;2022-09-02T00:14:16;2.78;;;1.40;;
46006;SDS011;31738;50.188;8.524;2022-09-02T00:16:53;3.58;;;1.30;;
46006;SDS011;31738;50.188;8.524;2022-09-02T00:19:20;2.13;;;1.23;;
46006;SDS011;31738;50.188;8.524;2022-09-02T00:21:48;2.92;;;1.50;;
46006;SDS011;31738;50.188;8.524;2022-09-02T00:24:14;5.35;;;1.67;;
46006;SDS011;31738;50.188;8.524;2022-09-02T00:26:41;3.17;;;1.30;;
46006;SDS011;31738;50.188;8.524;2022-09-02T00:29:08;1.80;;;1.45;;
46006;SDS011;31738;50.188;8.524;2022-09-02T00:31:34;1.80;;;1.30;;
46006;SDS011;31738;50.188;8.524;2022-09-02T00:34:01;2.22;;;1.40;;
46006;SDS011;31738;50.188;8.524;2022-09-02T00:36:28;1.45;;;1.20;;
46006;SDS011;31738;50.188;8.524;2022-09-02T00:38:53;2.08;;;1.23;;
46006;SDS011;31738;50.188;8.524;2022-09-02T00:41:21;3.47;;;1.40;;
46006;SDS011;31738;50.188;8.524;2022-09-02T00:44:02;2.30;;;1.30;;
46006;SDS011;31738;50.188;8.524;2022-09-02T00:46:30;2.00;;;1.30;;
46006;SDS011;31738;50.188;8.524;2022-09-02T00:49:02;1.80;;;1.27;;
46006;SDS011;31738;50.188;8.524;2022-09-02T00:51:58;3.72;;;1.50;;
46006;SDS011;31738;50.188;8.524;2022-09-02T00:54:29;1.90;;;1.20;;
46006;SDS011;31738;50.188;8.524;2022-09-02T00:56:57;1.98;;;1.42;;
46006;SDS011;31738;50.188;8.524;2022-09-02T00:59:38;2.70;;;1.50;;
46006;SDS011;31738;50.188;8.524;2022-09-02T01:02:10;3.17;;;1.63;;
46006;SDS011;31738;50.188;8.524;2022-09-02T01:04:36;2.85;;;1.45;;
46006;SDS011;31738;50.188;8.524;2022-09-02T01:07:02;2.42;;;1.08;;
46006;SDS011;31738;50.188;8.524;2022-09-02T01:09:28;3.33;;;1.40;;
46006;SDS011;31738;50.188;8.524;2022-09-02T01:11:56;2.17;;;1.40;;
46006;SDS011;31738;50.188;8.524;2022-09-02T01:14:22;3.33;;;1.40;;
46006;SDS011;31738;50.188;8.524;2022-09-02T01:16:49;4.93;;;1.90;;
46006;SDS011;31738;50.188;8.524;2022-09-02T01:19:22;4.07;;;1.40;;
46006;SDS011;31738;50.188;8.524;2022-09-02T01:21:50;2.85;;;1.30;;
46006;SDS011;31738;50.188;8.524;2022-09-02T01:24:17;2.33;;;1.40;;
46006;SDS011;31738;50.188;8.524;2022-09-02T01:26:44;3.40;;;1.20;;
46006;SDS011;31738;50.188;8.524;2022-09-02T01:29:10;1.77;;;1.50;;
46006;SDS011;31738;50.188;8.524;2022-09-02T01:31:36;1.88;;;1.35;;
46006;SDS011;31738;50.188;8.524;2022-09-02T01:34:03;2.35;;;1.33;;
46006;SDS011;31738;50.188;8.524;2022-09-02T01:36:31;4.40;;;1.40;;
46006;SDS011;31738;50.188;8.524;2022-09-02T01:38:57;4.97;;;1.60;;
46006;SDS011;31738;50.188;8.524;2022-09-02T01:41:24;1.70;;;1.40;;
46006;SDS011;31738;50.188;8.524;2022-09-02T01:43:49;1.67;;;1.25;;
46006;SDS011;31738;50.188;8.524;2022-09-02T01:46:15;5.43;;;1.50;;
46006;SDS011;31738;50.188;8.524;2022-09-02T01:48:40;1.98;;;1.40;;
46006;SDS011;31738;50.188;8.524;2022-09-02T01:51:06;2.30;;;1.52;;
46006;SDS011;31738;50.188;8.524;2022-09-02T01:53:32;2.90;;;1.35;;
46006;SDS011;31738;50.188;8.524;2022-09-02T01:55:58;3.45;;;1.30;;
46006;SDS011;31738;50.188;8.524;2022-09-02T01:58:27;1.63;;;1.30;;
46006;SDS011;31738;50.188;8.524;2022-09-02T02:00:53;4.25;;;1.42;;
46006;SDS011;31738;50.188;8.524;2022-09-02T02:03:19;1.98;;;1.20;;
46006;SDS011;31738;50.188;8.524;2022-09-02T02:05:45;7.32;;;1.60;;
46006;SDS011;31738;50.188;8.524;2022-09-02T02:08:14;2.13;;;1.33;;
46006;SDS011;31738;50.188;8.524;2022-09-02T02:10:40;5.68;;;1.50;;
46006;SDS011;31738;50.188;8.524;2022-09-02T02:13:07;1.88;;;1.27;;
46006;SDS011;31738;50.188;8.524;2022-09-02T02:15:35;2.53;;;1.40;;
46006;SDS011;31738;50.188;8.524;2022-09-02T02:18:02;4.05;;;1.40;;
46006;SDS011;31738;50.188;8.524;2022-09-02T02:20:28;2.90;;;1.15;;
46006;SDS011;31738;50.188;8.524;2022-09-02T02:22:55;2.45;;;1.60;;
46006;SDS011;31738;50.188;8.524;2022-09-02T02:25:20;3.15;;;1.30;;
46006;SDS011;31738;50.188;8.524;2022-09-02T02:27:49;3.72;;;1.52;;
46006;SDS011;31738;50.188;8.524;2022-09-02T02:30:16;2.25;;;1.33;;
46006;SDS011;31738;50.188;8.524;2022-09-02T02:32:42;3.33;;;1.42;;
46006;SDS011;31738;50.188;8.524;2022-09-02T02:35:13;4.28;;;1.60;;
46006;SDS011;31738;50.188;8.524;2022-09-02T02:37:40;2.33;;;1.60;;
46006;SDS011;31738;50.188;8.524;2022-09-02T02:40:07;2.22;;;1.63;;
46006;SDS011;31738;50.188;8.524;2022-09-02T02:42:33;3.80;;;1.50;;
46006;SDS011;31738;50.188;8.524;2022-09-02T02:44:59;2.30;;;1.38;;
46006;SDS011;31738;50.188;8.524;2022-09-02T02:47:25;5.22;;;1.30;;
46006;SDS011;31738;50.188;8.524;2022-09-02T02:49:51;3.67;;;1.15;;
46006;SDS011;31738;50.188;8.524;2022-09-02T02:52:17;3.05;;;1.50;;
46006;SDS011;31738;50.188;8.524;2022-09-02T02:54:43;2.97;;;1.38;;
46006;SDS011;31738;50.188;8.524;2022-09-02T02:57:09;4.68;;;1.55;;
46006;SDS011;31738;50.188;8.524;2022-09-02T02:59:35;2.92;;;1.70;;
46006;SDS011;31738;50.188;8.524;2022-09-02T03:02:02;3.78;;;1.50;;
46006;SDS011;31738;50.188;8.524;2022-09-02T03:04:29;2.20;;;1.25;;
46006;SDS011;31738;50.188;8.524;2022-09-02T03:06:55;3.53;;;1.20;;
46006;SDS011;31738;50.188;8.524;2022-09-02T03:09:21;3.38;;;1.40;;
46006;SDS011;31738;50.188;8.524;2022-09-02T03:11:47;6.25;;;1.30;;
46006;SDS011;31738;50.188;8.524;2022-09-02T03:14:13;2.65;;;1.60;;
46006;SDS011;31738;50.188;8.524;2022-09-02T03:16:39;4.00;;;2.15;;
46006;SDS011;31738;50.188;8.524;2022-09-02T03:19:05;1.95;;;1.48;;
46006;SDS011;31738;50.188;8.524;2022-09-02T03:21:32;3.20;;;1.55;;
46006;SDS011;31738;50.188;8.524;2022-09-02T03:23:57;3.60;;;1.60;;
46006;SDS011;31738;50.188;8.524;2022-09-02T03:26:24;2.55;;;1.40;;
46006;SDS011;31738;50.188;8.524;2022-09-02T03:28:54;2.65;;;1.27;;
46006;SDS011;31738;50.188;8.524;2022-09-02T03:31:21;2.70;;;1.58;;
46006;SDS011;31738;50.188;8.524;2022-09-02T03:33:48;1.98;;;1.45;;
46006;SDS011;31738;50.188;8.524;2022-09-02T03:36:24;3.45;;;1.30;;
46006;SDS011;31738;50.188;8.524;2022-09-02T03:38:58;2.85;;;1.38;;
46006;SDS011;31738;50.188;8.524;2022-09-02T03:41:26;2.13;;;1.40;;
46006;SDS011;31738;50.188;8.524;2022-09-02T03:43:53;4.38;;;1.63;;
46006;SDS011;31738;50.188;8.524;2022-09-02T03:46:19;3.42;;;1.40;;
46006;SDS011;31738;50.188;8.524;2022-09-02T03:48:45;5.40;;;1.73;;
46006;SDS011;31738;50.188;8.524;2022-09-02T03:51:11;2.17;;;1.30;;
46006;SDS011;31738;50.188;8.524;2022-09-02T03:53:37;1.77;;;1.50;;
46006;SDS011;31738;50.188;8.524;2022-09-02T03:56:07;2.75;;;1.70;;
46006;SDS011;31738;50.188;8.524;2022-09-02T03:58:36;4.72;;;1.33;;
46006;SDS011;31738;50.188;8.524;2022-09-02T04:01:02;3.28;;;1.50;;
46006;SDS011;31738;50.188;8.524;2022-09-02T04:03:29;3.33;;;1.50;;
46006;SDS011;31738;50.188;8.524;2022-09-02T04:05:55;3.20;;;1.50;;
46006;SDS011;31738;50.188;8.524;2022-09-02T04:08:23;2.67;;;1.40;;
46006;SDS011;31738;50.188;8.524;2022-09-02T04:10:51;4.60;;;1.70;;
46006;SDS011;31738;50.188;8.524;2022-09-02T04:13:17;13.77;;;1.65;;
46006;SDS011;31738;50.188;8.524;2022-09-02T04:15:43;3.03;;;1.23;;
46006;SDS011;31738;50.188;8.524;2022-09-02T04:18:12;4.50;;;2.45;;
46006;SDS011;31738;50.188;8.524;2022-09-02T04:20:39;3.70;;;2.90;;
46006;SDS011;31738;50.188;8.524;2022-09-02T04:23:06;6.53;;;1.90;;
46006;SDS011;31738;50.188;8.524;2022-09-02T04:25:32;5.13;;;1.38;;
46006;SDS011;31738;50.188;8.524;2022-09-02T04:28:02;2.30;;;1.50;;
46006;SDS011;31738;50.188;8.524;2022-09-02T04:30:27;2.28;;;1.60;;
46006;SDS011;31738;50.188;8.524;2022-09-02T04:32:53;2.88;;;1.38;;
46006;SDS011;31738;50.188;8.524;2022-09-02T04:35:19;3.72;;;1.30;;
46006;SDS011;31738;50.188;8.524;2022-09-02T04:37:45;2.50;;;1.60;;
46006;SDS011;31738;50.188;8.524;2022-09-02T04:40:14;4.03;;;1.40;;
46006;SDS011;31738;50.188;8.524;2022-09-02T04:42:40;7.28;;;1.70;;
46006;SDS011;31738;50.188;8.524;2022-09-02T04:45:07;5.13;;;1.67;;
46006;SDS011;31738;50.188;8.524;2022-09-02T04:47:34;2.08;;;1.35;;
46006;SDS011;31738;50.188;8.524;2022-09-02T04:50:01;2.28;;;1.38;;
46006;SDS011;31738;50.188;8.524;2022-09-02T04:52:29;3.40;;;1.50;;
46006;SDS011;31738;50.188;8.524;2022-09-02T04:54:55;2.75;;;1.60;;
46006;SDS011;31738;50.188;8.524;2022-09-02T04:57:21;3.67;;;1.70;;
46006;SDS011;31738;50.188;8.524;2022-09-02T04:59:47;3.53;;;1.30;;
46006;SDS011;31738;50.188;8.524;2022-09-02T05:02:13;3.20;;;1.42;;
46006;SDS011;31738;50.188;8.524;2022-09-02T05:04:39;4.38;;;1.55;;
46006;SDS011;31738;50.188;8.524;2022-09-02T05:07:11;2.13;;;1.40;;
46006;SDS011;31738;50.188;8.524;2022-09-02T05:09:41;3.22;;;1.33;;
46006;SDS011;31738;50.188;8.524;2022-09-02T05:12:08;1.45;;;1.30;;
46006;SDS011;31738;50.188;8.524;2022-09-02T05:14:41;4.65;;;3.47;;
46006;SDS011;31738;50.188;8.524;2022-09-02T05:17:08;6.90;;;2.65;;
46006;SDS011;31738;50.188;8.524;2022-09-02T05:19:37;2.55;;;1.67;;
46006;SDS011;31738;50.188;8.524;2022-09-02T05:22:03;2.50;;;1.40;;
46006;SDS011;31738;50.188;8.524;2022-09-02T05:24:35;3.80;;;1.65;;
46006;SDS011;31738;50.188;8.524;2022-09-02T05:27:05;3.28;;;1.50;;
46006;SDS011;31738;50.188;8.524;2022-09-02T05:29:33;3.15;;;1.40;;
46006;SDS011;31738;50.188;8.524;2022-09-02T05:31:59;3.60;;;1.67;;
46006;SDS011;31738;50.188;8.524;2022-09-02T05:34:25;3.38;;;1.48;;
46006;SDS011;31738;50.188;8.524;2022-09-02T05:36:54;1.75;;;1.30;;
46006;SDS011;31738;50.188;8.524;2022-09-02T05:39:20;5.00;;;1.55;;
46006;SDS011;31738;50.188;8.524;2022-09-02T05:41:47;4.20;;;1.55;;
46006;SDS011;31738;50.188;8.524;2022-09-02T05:44:12;3.90;;;1.55;;
46006;SDS011;31738;50.188;8.524;2022-09-02T05:46:38;4.05;;;1.55;;
46006;SDS011;31738;50.188;8.524;2022-09-02T05:49:04;2.20;;;1.38;;
46006;SDS011;31738;50.188;8.524;2022-09-02T05:54:29;1.98;;;1.42;;
46006;SDS011;31738;50.188;8.524;2022-09-02T05:56:58;1.85;;;1.42;;
46006;SDS011;31738;50.188;8.524;2022-09-02T05:59:26;1.60;;;1.15;;
46006;SDS011;31738;50.188;8.524;2022-09-02T06:01:56;2.80;;;1.58;;
46006;SDS011;31738;50.188;8.524;2022-09-02T06:04:22;3.85;;;1.50;;
46006;SDS011;31738;50.188;8.524;2022-09-02T06:06:48;4.55;;;1.55;;
46006;SDS011;31738;50.188;8.524;2022-09-02T06:09:18;2.00;;;1.42;;
46006;SDS011;31738;50.188;8.524;2022-09-02T06:11:46;2.22;;;1.20;;
46006;SDS011;31738;50.188;8.524;2022-09-02T06:14:17;2.55;;;1.38;;
46006;SDS011;31738;50.188;8.524;2022-09-02T06:16:46;1.98;;;1.42;;
46006;SDS011;31738;50.188;8.524;2022-09-02T06:19:20;3.72;;;1.45;;
46006;SDS011;31738;50.188;8.524;2022-09-02T06:21:49;3.05;;;1.45;;
46006;SDS011;31738;50.188;8.524;2022-09-02T06:24:17;3.17;;;1.33;;
46006;SDS011;31738;50.188;8.524;2022-09-02T06:26:43;2.75;;;1.67;;
46006;SDS011;31738;50.188;8.524;2022-09-02T06:29:09;4.13;;;1.70;;
46006;SDS011;31738;50.188;8.524;2022-09-02T06:31:35;3.35;;;1.50;;
46006;SDS011;31738;50.188;8.524;2022-09-02T06:34:02;3.03;;;1.35;;
46006;SDS011;31738;50.188;8.524;2022-09-02T06:36:29;2.45;;;1.33;;
46006;SDS011;31738;50.188;8.524;2022-09-02T06:38:58;1.27;;;1.05;;
46006;SDS011;31738;50.188;8.524;2022-09-02T06:41:26;4.13;;;1.40;;
46006;SDS011;31738;50.188;8.524;2022-09-02T06:43:57;1.83;;;1.30;;
46006;SDS011;31738;50.188;8.524;2022-09-02T06:46:26;2.75;;;1.35;;
46006;SDS011;31738;50.188;8.524;2022-09-02T06:48:57;2.17;;;1.30;;
46006;SDS011;31738;50.188;8.524;2022-09-02T06:51:25;1.70;;;1.25;;
46006;SDS011;31738;50.188;8.524;2022-09-02T06:53:54;3.25;;;1.40;;
46006;SDS011;31738;50.188;8.524;2022-09-02T06:56:22;2.10;;;1.02;;
46006;SDS011;31738;50.188;8.524;2022-09-02T06:58:49;3.25;;;1.65;;
46006;SDS011;31738;50.188;8.524;2022-09-02T07:01:33;2.13;;;1.40;;
46006;SDS011;31738;50.188;8.524;2022-09-02T07:06:46;4.88;;;1.48;;
46006;SDS011;31738;50.188;8.524;2022-09-02T07:09:15;2.78;;;1.67;;
46006;SDS011;31738;50.188;8.524;2022-09-02T07:11:46;4.05;;;1.40;;
46006;SDS011;31738;50.188;8.524;2022-09-02T07:14:14;3.00;;;1.70;;
46006;SDS011;31738;50.188;8.524;2022-09-02T07:16:42;2.95;;;1.77;;
46006;SDS011;31738;50.188;8.524;2022-09-02T07:19:10;3.20;;;1.70;;
46006;SDS011;31738;50.188;8.524;2022-09-02T07:24:50;1.27;;;1.10;;
46006;SDS011;31738;50.188;8.524;2022-09-02T07:27:51;4.05;;;1.55;;
46006;SDS011;31738;50.188;8.524;2022-09-02T07:30:19;2.17;;;1.30;;
46006;SDS011;31738;50.188;8.524;2022-09-02T07:32:50;3.85;;;1.80;;
46006;SDS011;31738;50.188;8.524;2022-09-02T07:35:20;3.33;;;1.48;;
46006;SDS011;31738;50.188;8.524;2022-09-02T07:37:48;4.90;;;1.40;;
46006;SDS011;31738;50.188;8.524;2022-09-02T07:40:18;3.65;;;1.40;;
46006;SDS011;31738;50.188;8.524;2022-09-02T07:42:48;2.15;;;1.23;;
46006;SDS011;31738;50.188;8.524;2022-09-02T07:45:27;3.42;;;1.30;;
46006;SDS011;31738;50.188;8.524;2022-09-02T07:48:33;5.78;;;1.60;;
46006;SDS011;31738;50.188;8.524;2022-09-02T07:51:11;3.50;;;1.42;;
46006;SDS011;31738;50.188;8.524;2022-09-02T07:53:38;3.70;;;1.50;;
46006;SDS011;31738;50.188;8.524;2022-09-02T07:56:17;4.50;;;1.58;;
46006;SDS011;31738;50.188;8.524;2022-09-02T07:58:44;2.92;;;1.38;;
46006;SDS011;31738;50.188;8.524;2022-09-02T08:01:39;3.17;;;1.60;;
46006;SDS011;31738;50.188;8.524;2022-09-02T08:04:10;4.90;;;1.33;;
46006;SDS011;31738;50.188;8.524;2022-09-02T08:06:44;3.45;;;1.50;;
46006;SDS011;31738;50.188;8.524;2022-09-02T08:09:58;3.72;;;1.70;;
46006;SDS011;31738;50.188;8.524;2022-09-02T08:15:37;1.83;;;1.50;;
46006;SDS011;31738;50.188;8.524;2022-09-02T08:18:06;3.17;;;1.25;;
46006;SDS011;31738;50.188;8.524;2022-09-02T08:23:44;1.73;;;1.27;;
46006;SDS011;31738;50.188;8.524;2022-09-02T08:26:30;4.35;;;1.50;;
46006;SDS011;31738;50.188;8.524;2022-09-02T08:29:11;1.80;;;1.48;;
46006;SDS011;31738;50.188;8.524;2022-09-02T08:31:37;3.40;;;1.27;;
46006;SDS011;31738;50.188;8.524;2022-09-02T08:34:25;3.75;;;1.52;;
46006;SDS011;31738;50.188;8.524;2022-09-02T08:36:55;6.82;;;1.40;;
46006;SDS011;31738;50.188;8.524;2022-09-02T08:39:28;3.95;;;1.60;;
46006;SDS011;31738;50.188;8.524;2022-09-02T08:42:11;3.15;;;1.55;;
46006;SDS011;31738;50.188;8.524;2022-09-02T08:51:48;3.28;;;1.30;;
46006;SDS011;31738;50.188;8.524;2022-09-02T08:57:10;2.08;;;1.30;;
46006;SDS011;31738;50.188;8.524;2022-09-02T08:59:36;2.25;;;1.35;;
46006;SDS011;31738;50.188;8.524;2022-09-02T09:15:58;5.50;;;1.52;;
46006;SDS011;31738;50.188;8.524;2022-09-02T09:18:55;3.33;;;1.67;;
46006;SDS011;31738;50.188;8.524;2022-09-02T09:21:29;4.85;;;1.65;;
46006;SDS011;31738;50.188;8.524;2022-09-02T09:23:56;3.50;;;1.20;;
46006;SDS011;31738;50.188;8.524;2022-09-02T09:26:26;6.63;;;1.17;;
46006;SDS011;31738;50.188;8.524;2022-09-02T09:28:53;1.85;;;1.35;;
46006;SDS011;31738;50.188;8.524;2022-09-02T09:31:21;5.35;;;1.80;;
46006;SDS011;31738;50.188;8.524;2022-09-02T09:45:14;2.13;;;1.10;;
46006;SDS011;31738;50.188;8.524;2022-09-02T09:53:32;1.65;;;1.08;;
46006;SDS011;31738;50.188;8.524;2022-09-02T09:58:44;1.90;;;1.20;;
46006;SDS011;31738;50.188;8.524;2022-09-02T10:01:29;2.17;;;1.13;;
46006;SDS011;31738;50.188;8.524;2022-09-02T10:03:58;3.97;;;1.10;;
46006;SDS011;31738;50.188;8.524;2022-09-02T10:07:04;1.77;;;1.00;;
46006;SDS011;31738;50.188;8.524;2022-09-02T10:09:37;1.55;;;1.20;;
46006;SDS011;31738;50.188;8.524;2022-09-02T10:12:08;3.25;;;1.30;;
46006;SDS011;31738;50.188;8.524;2022-09-02T10:14:47;4.90;;;1.33;;
46006;SDS011;31738;50.188;8.524;2022-09-02T10:17:34;2.63;;;1.08;;
46006;SDS011;31738;50.188;8.524;2022-09-02T10:20:21;1.20;;;1.08;;
46006;SDS011;31738;50.188;8.524;2022-09-02T10:23:20;1.75;;;1.05;;
46006;SDS011;31738;50.188;8.524;2022-09-02T10:32:29;1.65;;;1.10;;
46006;SDS011;31738;50.188;8.524;2022-09-02T10:34:41;1.42;;;1.20;;
46006;SDS011;31738;50.188;8.524;2022-09-02T10:37:38;2.90;;;1.10;;
46006;SDS011;31738;50.188;8.524;2022-09-02T10:40:19;1.30;;;1.02;;
46006;SDS011;31738;50.188;8.524;2022-09-02T10:43:00;1.20;;;1.02;;
46006;SDS011;31738;50.188;8.524;2022-09-02T10:45:47;1.63;;;1.05;;
46006;SDS011;31738;50.188;8.524;2022-09-02T10:56:58;1.60;;;0.93;;
46006;SDS011;31738;50.188;8.524;2022-09-02T10:59:49;1.55;;;0.90;;
46006;SDS011;31738;50.188;8.524;2022-09-02T11:02:27;3.90;;;1.42;;
46006;SDS011;31738;50.188;8.524;2022-09-02T11:05:22;2.88;;;1.10;;
46006;SDS011;31738;50.188;8.524;2022-09-02T11:08:51;2.72;;;1.02;;
46006;SDS011;31738;50.188;8.524;2022-09-02T11:20:59;1.92;;;1.10;;
46006;SDS011;31738;50.188;8.524;2022-09-02T11:27:15;1.55;;;1.00;;
46006;SDS011;31738;50.188;8.524;2022-09-02T11:30:26;3.10;;;0.90;;
46006;SDS011;31738;50.188;8.524;2022-09-02T11:33:18;3.70;;;0.90;;
46006;SDS011;31738;50.188;8.524;2022-09-02T11:35:50;3.53;;;1.48;;
46006;SDS011;31738;50.188;8.524;2022-09-02T11:38:49;4.50;;;1.05;;
46006;SDS011;31738;50.188;8.524;2022-09-02T11:42:08;2.83;;;1.00;;
46006;SDS011;31738;50.188;8.524;2022-09-02T11:44:47;1.63;;;0.90;;
46006;SDS011;31738;50.188;8.524;2022-09-02T11:50:51;1.10;;;0.90;;
46006;SDS011;31738;50.188;8.524;2022-09-02T11:53:37;2.97;;;1.00;;
46006;SDS011;31738;50.188;8.524;2022-09-02T11:58:44;1.80;;;1.02;;
46006;SDS011;31738;50.188;8.524;2022-09-02T12:01:31;2.97;;;1.23;;
46006;SDS011;31738;50.188;8.524;2022-09-02T12:17:08;1.67;;;1.10;;
46006;SDS011;31738;50.188;8.524;2022-09-02T12:19:41;2.92;;;1.08;;
46006;SDS011;31738;50.188;8.524;2022-09-02T12:22:23;3.33;;;1.52;;
46006;SDS011;31738;50.188;8.524;2022-09-02T12:31:11;2.45;;;1.20;;
46006;SDS011;31738;50.188;8.524;2022-09-02T12:37:19;2.53;;;1.02;;
46006;SDS011;31738;50.188;8.524;2022-09-02T12:43:53;4.00;;;1.17;;
46006;SDS011;31738;50.188;8.524;2022-09-02T12:53:49;7.03;;;1.02;;
46006;SDS011;31738;50.188;8.524;2022-09-02T12:56:53;2.05;;;0.95;;
46006;SDS011;31738;50.188;8.524;2022-09-02T12:59:31;2.20;;;1.20;;
46006;SDS011;31738;50.188;8.524;2022-09-02T13:16:01;4.40;;;0.90;;
46006;SDS011;31738;50.188;8.524;2022-09-02T13:23:06;5.75;;;1.27;;
46006;SDS011;31738;50.188;8.524;2022-09-02T13:26:05;1.30;;;0.80;;
46006;SDS011;31738;50.188;8.524;2022-09-02T13:31:30;2.55;;;1.23;;
46006;SDS011;31738;50.188;8.524;2022-09-02T13:33:59;1.67;;;1.17;;
46006;SDS011;31738;50.188;8.524;2022-09-02T13:36:31;2.63;;;0.90;;
46006;SDS011;31738;50.188;8.524;2022-09-02T13:39:16;2.10;;;1.40;;
46006;SDS011;31738;50.188;8.524;2022-09-02T13:41:42;1.58;;;0.98;;
46006;SDS011;31738;50.188;8.524;2022-09-02T13:44:11;1.83;;;1.23;;
46006;SDS011;31738;50.188;8.524;2022-09-02T13:46:44;1.58;;;1.13;;
46006;SDS011;31738;50.188;8.524;2022-09-02T13:49:47;2.13;;;1.02;;
46006;SDS011;31738;50.188;8.524;2022-09-02T13:52:13;5.00;;;1.30;;
46006;SDS011;31738;50.188;8.524;2022-09-02T13:54:47;4.60;;;1.00;;
46006;SDS011;31738;50.188;8.524;2022-09-02T13:57:18;1.45;;;1.05;;
46006;SDS011;31738;50.188;8.524;2022-09-02T13:59:48;2.53;;;1.08;;
46006;SDS011;31738;50.188;8.524;2022-09-02T14:05:06;3.58;;;0.95;;
46006;SDS011;31738;50.188;8.524;2022-09-02T14:07:42;3.35;;;1.00;;
46006;SDS011;31738;50.188;8.524;2022-09-02T14:10:12;8.57;;;1.30;;
46006;SDS011;31738;50.188;8.524;2022-09-02T14:12:41;0.98;;;0.88;;
46006;SDS011;31738;50.188;8.524;2022-09-02T14:15:09;5.20;;;1.30;;
46006;SDS011;31738;50.188;8.524;2022-09-02T14:17:37;3.25;;;1.27;;
46006;SDS011;31738;50.188;8.524;2022-09-02T14:20:21;2.13;;;0.90;;
46006;SDS011;31738;50.188;8.524;2022-09-02T14:22:51;2.88;;;1.00;;
46006;SDS011;31738;50.188;8.524;2022-09-02T14:25:20;6.20;;;1.20;;
46006;SDS011;31738;50.188;8.524;2022-09-02T14:27:51;2.22;;;0.95;;
46006;SDS011;31738;50.188;8.524;2022-09-02T14:30:34;3.22;;;1.25;;
46006;SDS011;31738;50.188;8.524;2022-09-02T14:33:14;6.95;;;1.40;;
46006;SDS011;31738;50.188;8.524;2022-09-02T14:35:41;1.58;;;1.02;;
46006;SDS011;31738;50.188;8.524;2022-09-02T14:38:23;1.02;;;0.90;;
46006;SDS011;31738;50.188;8.524;2022-09-02T14:40:57;2.78;;;0.93;;
46006;SDS011;31738;50.188;8.524;2022-09-02T14:43:33;2.08;;;0.90;;
46006;SDS011;31738;50.188;8.524;2022-09-02T14:46:06;1.63;;;0.80;;
46006;SDS011;31738;50.188;8.524;2022-09-02T14:48:41;5.03;;;1.20;;
46006;SDS011;31738;50.188;8.524;2022-09-02T14:51:07;9.07;;;1.50;;
46006;SDS011;31738;50.188;8.524;2022-09-02T14:53:33;2.35;;;1.00;;
46006;SDS011;31738;50.188;8.524;2022-09-02T14:56:02;1.25;;;0.88;;
46006;SDS011;31738;50.188;8.524;2022-09-02T14:58:28;2.30;;;1.20;;
46006;SDS011;31738;50.188;8.524;2022-09-02T15:00:57;2.47;;;0.90;;
46006;SDS011;31738;50.188;8.524;2022-09-02T15:03:24;2.67;;;1.00;;
46006;SDS011;31738;50.188;8.524;2022-09-02T15:05:50;2.55;;;1.48;;
46006;SDS011;31738;50.188;8.524;2022-09-02T15:08:19;3.05;;;1.15;;
46006;SDS011;31738;50.188;8.524;2022-09-02T15:10:45;4.05;;;1.30;;
46006;SDS011;31738;50.188;8.524;2022-09-02T15:13:12;10.55;;;1.13;;
46006;SDS011;31738;50.188;8.524;2022-09-02T15:15:45;6.90;;;1.48;;
46006;SDS011;31738;50.188;8.524;2022-09-02T15:18:10;1.27;;;0.98;;
46006;SDS011;31738;50.188;8.524;2022-09-02T15:20:36;6.13;;;1.13;;
46006;SDS011;31738;50.188;8.524;2022-09-02T15:23:01;3.83;;;1.00;;
46006;SDS011;31738;50.188;8.524;2022-09-02T15:25:27;2.15;;;1.00;;
46006;SDS011;31738;50.188;8.524;2022-09-02T15:27:53;1.50;;;0.70;;
46006;SDS011;31738;50.188;8.524;2022-09-02T15:30:18;1.35;;;0.90;;
46006;SDS011;31738;50.188;8.524;2022-09-02T15:32:44;1.95;;;1.00;;
46006;SDS011;31738;50.188;8.524;2022-09-02T15:35:09;2.38;;;0.90;;
46006;SDS011;31738;50.188;8.524;2022-09-02T15:37:35;3.13;;;0.90;;
46006;SDS011;31738;50.188;8.524;2022-09-02T15:40:06;1.58;;;0.98;;
46006;SDS011;31738;50.188;8.524;2022-09-02T15:42:35;3.40;;;0.88;;
46006;SDS011;31738;50.188;8.524;2022-09-02T15:45:02;2.40;;;0.75;;
46006;SDS011;31738;50.188;8.524;2022-09-02T15:47:29;1.00;;;0.90;;
46006;SDS011;31738;50.188;8.524;2022-09-02T15:49:55;1.65;;;1.00;;
46006;SDS011;31738;50.188;8.524;2022-09-02T15:52:24;1.20;;;0.70;;
46006;SDS011;31738;50.188;8.524;2022-09-02T15:54:50;3.63;;;1.00;;
46006;SDS011;31738;50.188;8.524;2022-09-02T15:57:17;3.28;;;0.90;;
46006;SDS011;31738;50.188;8.524;2022-09-02T15:59:43;1.25;;;0.60;;
46006;SDS011;31738;50.188;8.524;2022-09-02T16:02:08;2.70;;;0.88;;
46006;SDS011;31738;50.188;8.524;2022-09-02T16:04:33;6.75;;;1.17;;
46006;SDS011;31738;50.188;8.524;2022-09-02T16:06:59;1.23;;;1.00;;
46006;SDS011;31738;50.188;8.524;2022-09-02T16:09:25;1.55;;;0.88;;
46006;SDS011;31738;50.188;8.524;2022-09-02T16:11:51;2.05;;;0.85;;
46006;SDS011;31738;50.188;8.524;2022-09-02T16:14:18;1.48;;;1.00;;
46006;SDS011;31738;50.188;8.524;2022-09-02T16:16:45;4.55;;;1.23;;
46006;SDS011;31738;50.188;8.524;2022-09-02T16:19:10;2.03;;;0.82;;
46006;SDS011;31738;50.188;8.524;2022-09-02T16:21:36;2.65;;;1.00;;
46006;SDS011;31738;50.188;8.524;2022-09-02T16:24:08;1.50;;;0.70;;
46006;SDS011;31738;50.188;8.524;2022-09-02T16:26:37;1.23;;;0.90;;
46006;SDS011;31738;50.188;8.524;2022-09-02T16:29:05;3.45;;;1.00;;
46006;SDS011;31738;50.188;8.524;2022-09-02T16:31:33;1.55;;;1.15;;
46006;SDS011;31738;50.188;8.524;2022-09-02T16:34:01;2.40;;;1.00;;
46006;SDS011;31738;50.188;8.524;2022-09-02T16:36:35;2.50;;;1.05;;
46006;SDS011;31738;50.188;8.524;2022-09-02T16:39:06;1.33;;;1.00;;
46006;SDS011;31738;50.188;8.524;2022-09-02T16:41:36;2.40;;;0.82;;
46006;SDS011;31738;50.188;8.524;2022-09-02T16:44:07;2.08;;;1.08;;
46006;SDS011;31738;50.188;8.524;2022-09-02T16:46:34;1.20;;;0.73;;
46006;SDS011;31738;50.188;8.524;2022-09-02T16:49:01;1.25;;;0.75;;
46006;SDS011;31738;50.188;8.524;2022-09-02T16:51:27;2.40;;;1.00;;
46006;SDS011;31738;50.188;8.524;2022-09-02T16:53:55;1.90;;;0.82;;
46006;SDS011;31738;50.188;8.524;2022-09-02T16:56:22;3.50;;;0.80;;
46006;SDS011;31738;50.188;8.524;2022-09-02T16:58:48;5.03;;;0.98;;
46006;SDS011;31738;50.188;8.524;2022-09-02T17:01:14;0.98;;;0.77;;
46006;SDS011;31738;50.188;8.524;2022-09-02T17:03:41;4.10;;;1.02;;
46006;SDS011;31738;50.188;8.524;2022-09-02T17:06:08;1.58;;;1.15;;
46006;SDS011;31738;50.188;8.524;2022-09-02T17:08:34;3.80;;;1.20;;
46006;SDS011;31738;50.188;8.524;2022-09-02T17:14:01;1.20;;;0.93;;
46006;SDS011;31738;50.188;8.524;2022-09-02T17:16:29;3.33;;;1.40;;
46006;SDS011;31738;50.188;8.524;2022-09-02T17:18:56;2.05;;;1.45;;
46006;SDS011;31738;50.188;8.524;2022-09-02T17:21:24;1.98;;;1.13;;
46006;SDS011;31738;50.188;8.524;2022-09-02T17:23:53;1.38;;;1.10;;
46006;SDS011;31738;50.188;8.524;2022-09-02T17:26:20;2.97;;;1.17;;
46006;SDS011;31738;50.188;8.524;2022-09-02T17:28:47;1.70;;;0.98;;
46006;SDS011;31738;50.188;8.524;2022-09-02T17:31:15;1.50;;;0.90;;
46006;SDS011;31738;50.188;8.524;2022-09-02T17:33:50;2.65;;;1.27;;
46006;SDS011;31738;50.188;8.524;2022-09-02T17:36:17;3.45;;;1.00;;
46006;SDS011;31738;50.188;8.524;2022-09-02T17:38:43;3.40;;;0.77;;
46006;SDS011;31738;50.188;8.524;2022-09-02T17:41:09;0.98;;;0.80;;
46006;SDS011;31738;50.188;8.524;2022-09-02T17:43:53;2.65;;;1.10;;
46006;SDS011;31738;50.188;8.524;2022-09-02T17:46:19;1.52;;;0.80;;